createdAt,value
2019-02-18T00:00:07.601Z,1019.66
2019-02-18T00:01:07.568Z,1019.63
2019-02-18T00:02:07.539Z,1019.66
2019-02-18T00:03:07.504Z,1019.63
2019-02-18T00:04:07.468Z,1019.63
2019-02-18T00:05:07.439Z,1019.59
2019-02-18T00:06:07.408Z,1019.62
2019-02-18T00:07:14.119Z,1019.61
2019-02-18T00:08:07.337Z,1019.64
2019-02-18T00:09:07.306Z,1019.61
2019-02-18T00:10:07.270Z,1019.60
2019-02-18T00:11:07.236Z,1019.61
2019-02-18T00:12:07.204Z,1019.57
2019-02-18T00:13:07.175Z,1019.59
2019-02-18T00:14:07.138Z,1019.57
2019-02-18T00:15:07.107Z,1019.52
2019-02-18T00:16:07.071Z,1019.52
2019-02-18T00:17:07.039Z,1019.57
2019-02-18T00:18:07.008Z,1019.56
2019-02-18T00:19:06.974Z,1019.55
2019-02-18T00:20:06.938Z,1019.57
2019-02-18T00:21:06.908Z,1019.57
2019-02-18T00:22:06.872Z,1019.58
2019-02-18T00:23:06.840Z,1019.58
2019-02-18T00:24:06.810Z,1019.58
2019-02-18T00:25:06.773Z,1019.56
2019-02-18T00:26:06.741Z,1019.53
2019-02-18T00:27:06.711Z,1019.53
2019-02-18T00:28:06.675Z,1019.56
2019-02-18T00:29:06.646Z,1019.51
2019-02-18T00:30:06.610Z,1019.49
2019-02-18T00:31:06.576Z,1019.52
2019-02-18T00:32:06.542Z,1019.50
2019-02-18T00:33:06.509Z,1019.52
2019-02-18T00:34:06.478Z,1019.48
2019-02-18T00:35:06.443Z,1019.47
2019-02-18T00:36:06.408Z,1019.50
2019-02-18T00:37:06.381Z,1019.47
2019-02-18T00:38:06.343Z,1019.47
2019-02-18T00:39:06.310Z,1019.44
2019-02-18T00:40:06.276Z,1019.47
2019-02-18T00:41:06.244Z,1019.47
2019-02-18T00:42:06.211Z,1019.46
2019-02-18T00:43:06.178Z,1019.46
2019-02-18T00:44:06.144Z,1019.44
2019-02-18T00:45:06.112Z,1019.48
2019-02-18T00:46:06.081Z,1019.44
2019-02-18T00:47:06.045Z,1019.47
2019-02-18T00:48:06.012Z,1019.46
2019-02-18T00:49:05.997Z,1019.46
2019-02-18T00:50:05.945Z,1019.39
2019-02-18T00:51:05.912Z,1019.41
2019-02-18T00:52:05.878Z,1019.41
2019-02-18T00:53:05.851Z,1019.42
2019-02-18T00:54:05.815Z,1019.41
2019-02-18T00:55:05.781Z,1019.45
2019-02-18T00:56:05.746Z,1019.38
2019-02-18T00:57:05.712Z,1019.41
2019-02-18T00:58:05.680Z,1019.39
2019-02-18T00:59:05.647Z,1019.40
2019-02-18T01:00:05.611Z,1019.37
2019-02-18T01:01:05.583Z,1019.42
2019-02-18T01:02:05.545Z,1019.37
2019-02-18T01:03:05.513Z,1019.35
2019-02-18T01:04:05.479Z,1019.35
2019-02-18T01:05:05.449Z,1019.38
2019-02-18T01:06:05.412Z,1019.37
2019-02-18T01:07:05.380Z,1019.36
2019-02-18T01:08:05.344Z,1019.41
2019-02-18T01:09:05.325Z,1019.37
2019-02-18T01:10:05.279Z,1019.36
2019-02-18T01:11:05.253Z,1019.39
2019-02-18T01:12:05.219Z,1019.42
2019-02-18T01:13:05.180Z,1019.43
2019-02-18T01:14:05.150Z,1019.41
2019-02-18T01:15:05.117Z,1019.43
2019-02-18T01:16:05.081Z,1019.43
2019-02-18T01:17:05.065Z,1019.46
2019-02-18T01:18:05.014Z,1019.43
2019-02-18T01:19:04.979Z,1019.50
2019-02-18T01:20:04.945Z,1019.44
2019-02-18T01:21:04.913Z,1019.38
2019-02-18T01:22:04.878Z,1019.40
2019-02-18T01:23:04.847Z,1019.41
2019-02-18T01:24:04.811Z,1019.38
2019-02-18T01:25:04.779Z,1019.39
2019-02-18T01:26:04.760Z,1019.42
2019-02-18T01:27:04.712Z,1019.37
2019-02-18T01:28:04.677Z,1019.40
2019-02-18T01:29:04.646Z,1019.39
2019-02-18T01:30:04.611Z,1019.39
2019-02-18T01:31:04.579Z,1019.32
2019-02-18T01:32:04.544Z,1019.35
2019-02-18T01:33:04.511Z,1019.30
2019-02-18T01:34:04.477Z,1019.27
2019-02-18T01:35:04.445Z,1019.32
2019-02-18T01:36:04.412Z,1019.32
2019-02-18T01:37:04.380Z,1019.30
2019-02-18T01:38:04.344Z,1019.31
2019-02-18T01:39:04.310Z,1019.32
2019-02-18T01:40:04.280Z,1019.25
2019-02-18T01:41:04.264Z,1019.26
2019-02-18T01:42:04.219Z,1019.24
2019-02-18T01:43:04.176Z,1019.29
2019-02-18T01:44:04.145Z,1019.24
2019-02-18T01:45:04.111Z,1019.22
2019-02-18T01:46:04.076Z,1019.20
2019-02-18T01:47:04.041Z,1019.14
2019-02-18T01:48:04.009Z,1019.22
2019-02-18T01:49:03.973Z,1019.10
2019-02-18T01:50:03.942Z,1019.14
2019-02-18T01:51:03.909Z,1019.11
2019-02-18T01:52:03.879Z,1019.16
2019-02-18T01:53:03.839Z,1019.13
2019-02-18T01:54:03.806Z,1019.12
2019-02-18T01:55:03.773Z,1019.04
2019-02-18T01:56:03.738Z,1019.05
2019-02-18T01:57:03.712Z,1019.09
2019-02-18T01:58:03.675Z,1019.03
2019-02-18T01:59:03.639Z,1019.04
2019-02-18T02:00:03.604Z,1019.01
2019-02-18T02:01:03.578Z,1019.04
2019-02-18T02:02:03.539Z,1019.06
2019-02-18T02:03:03.505Z,1019.07
2019-02-18T02:04:03.471Z,1019.04
2019-02-18T02:05:03.439Z,1019.04
2019-02-18T02:06:03.403Z,1019.04
2019-02-18T02:07:03.371Z,1019.04
2019-02-18T02:08:03.335Z,1019.05
2019-02-18T02:09:03.301Z,1018.97
2019-02-18T02:10:03.268Z,1018.97
2019-02-18T02:11:03.239Z,1018.95
2019-02-18T02:12:03.201Z,1018.95
2019-02-18T02:13:03.169Z,1018.96
2019-02-18T02:14:03.138Z,1018.93
2019-02-18T02:15:03.101Z,1018.95
2019-02-18T02:16:03.067Z,1018.96
2019-02-18T02:17:03.032Z,1018.96
2019-02-18T02:18:02.999Z,1018.97
2019-02-18T02:19:02.965Z,1018.94
2019-02-18T02:20:02.934Z,1018.94
2019-02-18T02:21:02.897Z,1018.92
2019-02-18T02:22:02.864Z,1018.96
2019-02-18T02:23:02.831Z,1018.92
2019-02-18T02:24:02.797Z,1018.94
2019-02-18T02:25:02.763Z,1018.94
2019-02-18T02:26:02.730Z,1018.93
2019-02-18T02:27:02.697Z,1018.94
2019-02-18T02:28:02.662Z,1018.92
2019-02-18T02:29:02.633Z,1018.95
2019-02-18T02:30:02.604Z,1018.95
2019-02-18T02:31:02.568Z,1018.92
2019-02-18T02:32:02.526Z,1018.89
2019-02-18T02:33:02.498Z,1018.89
2019-02-18T02:34:02.463Z,1018.82
2019-02-18T02:35:02.426Z,1018.83
2019-02-18T02:36:02.392Z,1018.85
2019-02-18T02:37:02.360Z,1018.86
2019-02-18T02:38:07.661Z,1018.85
2019-02-18T02:39:02.297Z,1018.84
2019-02-18T02:40:02.257Z,1018.83
2019-02-18T02:41:02.228Z,1018.85
2019-02-18T02:42:02.191Z,1018.84
2019-02-18T02:43:02.156Z,1018.84
2019-02-18T02:44:02.126Z,1018.83
2019-02-18T02:45:02.100Z,1018.85
2019-02-18T02:46:02.057Z,1018.88
2019-02-18T02:47:02.024Z,1018.84
2019-02-18T02:48:01.987Z,1018.79
2019-02-18T02:49:01.953Z,1018.81
2019-02-18T02:50:01.921Z,1018.78
2019-02-18T02:51:01.887Z,1018.78
2019-02-18T02:52:01.852Z,1018.78
2019-02-18T02:53:01.820Z,1018.78
2019-02-18T02:54:01.783Z,1018.75
2019-02-18T02:55:01.751Z,1018.75
2019-02-18T02:56:01.716Z,1018.73
2019-02-18T02:57:01.685Z,1018.72
2019-02-18T02:58:01.649Z,1018.74
2019-02-18T02:59:01.614Z,1018.71
2019-02-18T03:00:01.581Z,1018.70
2019-02-18T03:01:01.554Z,1018.72
2019-02-18T03:02:01.524Z,1018.73
2019-02-18T03:03:01.478Z,1018.71
2019-02-18T03:04:01.450Z,1018.72
2019-02-18T03:05:01.409Z,1018.69
2019-02-18T03:06:01.376Z,1018.68
2019-02-18T03:07:01.356Z,1018.69
2019-02-18T03:08:01.311Z,1018.70
2019-02-18T03:09:01.275Z,1018.69
2019-02-18T03:10:01.240Z,1018.70
2019-02-18T03:11:01.207Z,1018.66
2019-02-18T03:12:01.174Z,1018.70
2019-02-18T03:13:01.142Z,1018.68
2019-02-18T03:14:01.167Z,1018.69
2019-02-18T03:15:01.071Z,1018.67
2019-02-18T03:16:01.037Z,1018.70
2019-02-18T03:17:01.004Z,1018.67
2019-02-18T03:18:00.969Z,1018.65
2019-02-18T03:19:00.945Z,1018.67
2019-02-18T03:20:00.908Z,1018.68
2019-02-18T03:21:00.867Z,1018.67
2019-02-18T03:22:00.834Z,1018.69
2019-02-18T03:23:00.800Z,1018.72
2019-02-18T03:24:00.768Z,1018.67
2019-02-18T03:25:00.731Z,1018.68
2019-02-18T03:26:00.699Z,1018.68
2019-02-18T03:27:00.666Z,1018.72
2019-02-18T03:28:00.632Z,1018.69
2019-02-18T03:29:00.598Z,1018.70
2019-02-18T03:30:00.563Z,1018.68
2019-02-18T03:31:00.571Z,1018.69
2019-02-18T03:32:00.501Z,1018.70
2019-02-18T03:33:00.674Z,1018.67
2019-02-18T03:34:00.427Z,1018.68
2019-02-18T03:35:00.832Z,1018.67
2019-02-18T03:36:00.360Z,1018.67
2019-02-18T03:37:00.324Z,1018.74
2019-02-18T03:38:00.290Z,1018.78
2019-02-18T03:39:00.255Z,1018.81
2019-02-18T03:40:00.298Z,1018.79
2019-02-18T03:41:03.245Z,1018.83
2019-02-18T03:42:00.152Z,1018.81
2019-02-18T03:43:00.119Z,1018.83
2019-02-18T03:44:00.084Z,1018.81
2019-02-18T03:45:00.095Z,1018.83
2019-02-18T03:46:00.016Z,1018.86
2019-02-18T03:46:59.985Z,1018.84
2019-02-18T03:47:59.948Z,1018.86
2019-02-18T03:48:59.914Z,1018.86
2019-02-18T03:49:59.881Z,1018.82
2019-02-18T03:50:59.848Z,1018.85
2019-02-18T03:51:59.811Z,1018.86
2019-02-18T03:52:59.778Z,1018.85
2019-02-18T03:53:59.744Z,1018.86
2019-02-18T03:54:59.718Z,1018.88
2019-02-18T03:55:59.680Z,1018.87
2019-02-18T03:56:59.641Z,1018.88
2019-02-18T03:57:59.607Z,1018.87
2019-02-18T03:58:59.574Z,1018.87
2019-02-18T03:59:59.541Z,1018.82
2019-02-18T04:00:59.506Z,1018.83
2019-02-18T04:01:59.473Z,1018.86
2019-02-18T04:02:59.448Z,1018.82
2019-02-18T04:03:59.405Z,1018.84
2019-02-18T04:04:59.367Z,1018.86
2019-02-18T04:05:59.343Z,1018.86
2019-02-18T04:06:59.304Z,1018.85
2019-02-18T04:07:59.268Z,1018.75
2019-02-18T04:08:59.230Z,1018.83
2019-02-18T04:09:59.198Z,1018.80
2019-02-18T04:10:59.163Z,1018.87
2019-02-18T04:11:59.129Z,1018.83
2019-02-18T04:12:59.094Z,1018.82
2019-02-18T04:13:59.059Z,1018.85
2019-02-18T04:14:59.027Z,1018.85
2019-02-18T04:15:58.993Z,1018.82
2019-02-18T04:16:58.961Z,1018.88
2019-02-18T04:17:58.922Z,1018.79
2019-02-18T04:18:58.892Z,1018.81
2019-02-18T04:19:58.871Z,1018.79
2019-02-18T04:20:58.821Z,1018.76
2019-02-18T04:21:58.786Z,1018.77
2019-02-18T04:22:58.752Z,1018.73
2019-02-18T04:23:58.717Z,1018.80
2019-02-18T04:24:58.683Z,1018.73
2019-02-18T04:25:58.649Z,1018.75
2019-02-18T04:26:58.615Z,1018.75
2019-02-18T04:27:58.583Z,1018.76
2019-02-18T04:28:58.548Z,1018.76
2019-02-18T04:29:58.513Z,1018.81
2019-02-18T04:30:58.478Z,1018.79
2019-02-18T04:31:58.444Z,1018.77
2019-02-18T04:32:58.411Z,1018.77
2019-02-18T04:33:58.376Z,1018.75
2019-02-18T04:34:58.341Z,1018.73
2019-02-18T04:35:58.308Z,1018.78
2019-02-18T04:36:58.272Z,1018.76
2019-02-18T04:37:58.239Z,1018.73
2019-02-18T04:38:58.205Z,1018.74
2019-02-18T04:39:58.171Z,1018.72
2019-02-18T04:40:58.158Z,1018.71
2019-02-18T04:41:58.104Z,1018.70
2019-02-18T04:42:58.069Z,1018.72
2019-02-18T04:43:58.034Z,1018.69
2019-02-18T04:44:58.000Z,1018.67
2019-02-18T04:45:57.964Z,1018.68
2019-02-18T04:46:57.931Z,1018.65
2019-02-18T04:47:57.897Z,1018.67
2019-02-18T04:48:57.868Z,1018.66
2019-02-18T04:49:57.826Z,1018.63
2019-02-18T04:50:57.793Z,1018.61
2019-02-18T04:51:57.758Z,1018.63
2019-02-18T04:52:57.725Z,1018.63
2019-02-18T04:53:57.695Z,1018.60
2019-02-18T04:54:57.658Z,1018.63
2019-02-18T04:55:57.623Z,1018.57
2019-02-18T04:56:57.587Z,1018.61
2019-02-18T04:57:57.573Z,1018.58
2019-02-18T04:58:57.524Z,1018.59
2019-02-18T04:59:57.484Z,1018.60
2019-02-18T05:00:57.451Z,1018.56
2019-02-18T05:01:57.415Z,1018.57
2019-02-18T05:02:57.383Z,1018.61
2019-02-18T05:03:57.346Z,1018.61
2019-02-18T05:04:57.312Z,1018.57
2019-02-18T05:05:57.951Z,1018.59
2019-02-18T05:06:57.244Z,1018.60
2019-02-18T05:07:57.210Z,1018.60
2019-02-18T05:09:05.019Z,1018.60
2019-02-18T05:09:57.143Z,1018.61
2019-02-18T05:10:57.105Z,1018.55
2019-02-18T05:11:57.073Z,1018.59
2019-02-18T05:12:57.040Z,1018.60
2019-02-18T05:13:57.003Z,1018.63
2019-02-18T05:14:56.969Z,1018.60
2019-02-18T05:15:56.938Z,1018.57
2019-02-18T05:16:56.899Z,1018.60
2019-02-18T05:17:56.869Z,1018.55
2019-02-18T05:18:56.832Z,1018.61
2019-02-18T05:19:56.798Z,1018.56
2019-02-18T05:20:56.762Z,1018.54
2019-02-18T05:21:56.732Z,1018.54
2019-02-18T05:22:56.694Z,1018.52
2019-02-18T05:23:56.660Z,1018.56
2019-02-18T05:24:56.642Z,1018.56
2019-02-18T05:25:56.590Z,1018.55
2019-02-18T05:26:56.557Z,1018.58
2019-02-18T05:27:56.526Z,1018.57
2019-02-18T05:28:56.489Z,1018.54
2019-02-18T05:29:56.452Z,1018.53
2019-02-18T05:30:56.419Z,1018.54
2019-02-18T05:31:56.383Z,1018.51
2019-02-18T05:32:56.349Z,1018.55
2019-02-18T05:33:56.315Z,1018.55
2019-02-18T05:34:56.280Z,1018.48
2019-02-18T05:35:56.247Z,1018.48
2019-02-18T05:36:56.214Z,1018.48
2019-02-18T05:37:56.178Z,1018.46
2019-02-18T05:38:56.145Z,1018.51
2019-02-18T05:39:56.111Z,1018.53
2019-02-18T05:40:56.073Z,1018.56
2019-02-18T05:41:56.038Z,1018.55
2019-02-18T05:42:56.004Z,1018.54
2019-02-18T05:43:56.031Z,1018.59
2019-02-18T05:44:55.936Z,1018.58
2019-02-18T05:45:55.901Z,1018.56
2019-02-18T05:46:55.866Z,1018.52
2019-02-18T05:47:55.831Z,1018.54
2019-02-18T05:48:55.796Z,1018.53
2019-02-18T05:49:55.762Z,1018.49
2019-02-18T05:50:55.726Z,1018.51
2019-02-18T05:51:55.694Z,1018.50
2019-02-18T05:52:55.658Z,1018.55
2019-02-18T05:53:55.625Z,1018.51
2019-02-18T05:54:55.590Z,1018.51
2019-02-18T05:55:55.555Z,1018.52
2019-02-18T05:56:55.526Z,1018.53
2019-02-18T05:57:55.485Z,1018.56
2019-02-18T05:58:55.454Z,1018.55
2019-02-18T05:59:55.422Z,1018.54
2019-02-18T06:00:55.388Z,1018.51
2019-02-18T06:01:55.348Z,1018.53
2019-02-18T06:02:55.313Z,1018.52
2019-02-18T06:03:55.280Z,1018.53
2019-02-18T06:04:55.244Z,1018.56
2019-02-18T06:05:55.218Z,1018.56
2019-02-18T06:06:55.176Z,1018.58
2019-02-18T06:07:55.139Z,1018.61
2019-02-18T06:08:55.108Z,1018.61
2019-02-18T06:09:55.071Z,1018.60
2019-02-18T06:10:55.038Z,1018.62
2019-02-18T06:11:55.002Z,1018.65
2019-02-18T06:12:54.965Z,1018.69
2019-02-18T06:13:54.931Z,1018.65
2019-02-18T06:14:54.897Z,1018.69
2019-02-18T06:15:54.861Z,1018.72
2019-02-18T06:16:54.827Z,1018.70
2019-02-18T06:17:54.792Z,1018.69
2019-02-18T06:18:54.762Z,1018.70
2019-02-18T06:19:54.724Z,1018.70
2019-02-18T06:20:54.693Z,1018.70
2019-02-18T06:21:54.654Z,1018.72
2019-02-18T06:22:54.629Z,1018.72
2019-02-18T06:23:54.584Z,1018.72
2019-02-18T06:24:54.552Z,1018.77
2019-02-18T06:25:54.516Z,1018.72
2019-02-18T06:26:54.480Z,1018.77
2019-02-18T06:27:54.449Z,1018.72
2019-02-18T06:28:54.412Z,1018.82
2019-02-18T06:29:54.376Z,1018.82
2019-02-18T06:30:55.043Z,1018.81
2019-02-18T06:31:54.310Z,1018.79
2019-02-18T06:32:54.276Z,1018.81
2019-02-18T06:33:54.238Z,1018.80
2019-02-18T06:34:54.203Z,1018.84
2019-02-18T06:35:54.168Z,1018.86
2019-02-18T06:36:54.136Z,1018.84
2019-02-18T06:37:54.099Z,1018.87
2019-02-18T06:38:54.064Z,1018.84
2019-02-18T06:39:54.031Z,1018.89
2019-02-18T06:40:53.997Z,1018.89
2019-02-18T06:41:53.961Z,1018.94
2019-02-18T06:42:53.925Z,1018.93
2019-02-18T06:43:53.891Z,1018.96
2019-02-18T06:44:53.856Z,1018.94
2019-02-18T06:45:53.821Z,1018.95
2019-02-18T06:46:53.788Z,1018.93
2019-02-18T06:47:53.752Z,1018.94
2019-02-18T06:48:53.761Z,1018.93
2019-02-18T06:49:53.684Z,1018.97
2019-02-18T06:50:53.650Z,1018.96
2019-02-18T06:51:53.615Z,1019.01
2019-02-18T06:52:53.581Z,1018.96
2019-02-18T06:53:53.545Z,1018.97
2019-02-18T06:54:53.511Z,1018.99
2019-02-18T06:55:53.478Z,1019.03
2019-02-18T06:56:53.442Z,1019.00
2019-02-18T06:57:53.406Z,1018.99
2019-02-18T06:58:53.372Z,1019.01
2019-02-18T06:59:53.337Z,1019.04
2019-02-18T07:00:53.304Z,1019.03
2019-02-18T07:01:53.270Z,1019.04
2019-02-18T07:02:53.236Z,1019.02
2019-02-18T07:03:53.202Z,1019.03
2019-02-18T07:04:53.165Z,1019.05
2019-02-18T07:05:53.132Z,1019.05
2019-02-18T07:06:53.100Z,1019.11
2019-02-18T07:07:53.063Z,1019.11
2019-02-18T07:08:53.030Z,1019.08
2019-02-18T07:09:52.995Z,1019.14
2019-02-18T07:10:52.961Z,1019.14
2019-02-18T07:11:52.930Z,1019.14
2019-02-18T07:12:52.893Z,1019.12
2019-02-18T07:13:52.860Z,1019.14
2019-02-18T07:14:52.826Z,1019.10
2019-02-18T07:15:52.797Z,1019.11
2019-02-18T07:16:52.759Z,1019.10
2019-02-18T07:17:52.726Z,1019.07
2019-02-18T07:18:52.692Z,1019.08
2019-02-18T07:19:52.660Z,1019.09
2019-02-18T07:20:52.627Z,1019.10
2019-02-18T07:21:52.596Z,1019.10
2019-02-18T07:22:52.559Z,1019.10
2019-02-18T07:23:52.529Z,1019.06
2019-02-18T07:24:52.493Z,1019.09
2019-02-18T07:25:52.460Z,1019.09
2019-02-18T07:26:52.427Z,1019.12
2019-02-18T07:27:52.392Z,1019.08
2019-02-18T07:28:52.361Z,1019.08
2019-02-18T07:29:52.330Z,1019.05
2019-02-18T07:30:52.296Z,1019.06
2019-02-18T07:31:52.263Z,1019.06
2019-02-18T07:32:52.230Z,1019.08
2019-02-18T07:33:52.198Z,1019.06
2019-02-18T07:34:52.171Z,1019.11
2019-02-18T07:35:52.135Z,1019.08
2019-02-18T07:36:52.106Z,1019.06
2019-02-18T07:37:52.073Z,1019.05
2019-02-18T07:38:52.037Z,1019.05
2019-02-18T07:40:01.126Z,1019.07
2019-02-18T07:40:51.976Z,1019.08
2019-02-18T07:41:51.941Z,1019.10
2019-02-18T07:42:51.908Z,1019.06
2019-02-18T07:43:51.878Z,1019.08
2019-02-18T07:44:51.845Z,1019.08
2019-02-18T07:45:51.814Z,1019.06
2019-02-18T07:46:51.785Z,1019.06
2019-02-18T07:47:51.753Z,1019.04
2019-02-18T07:48:51.731Z,1019.02
2019-02-18T07:49:51.694Z,1019.03
2019-02-18T07:50:51.660Z,1019.05
2019-02-18T07:51:51.632Z,1019.07
2019-02-18T07:52:51.600Z,1019.12
2019-02-18T07:53:51.569Z,1019.10
2019-02-18T07:54:51.540Z,1019.11
2019-02-18T07:55:51.509Z,1019.09
2019-02-18T07:56:51.479Z,1019.06
2019-02-18T07:57:51.449Z,1019.04
2019-02-18T07:58:51.420Z,1019.07
2019-02-18T07:59:51.396Z,1019.04
2019-02-18T08:00:51.359Z,1019.03
2019-02-18T08:01:51.330Z,1019.07
2019-02-18T08:02:51.302Z,1019.05
2019-02-18T08:03:51.272Z,1019.04
2019-02-18T08:04:51.243Z,1019.01
2019-02-18T08:05:51.216Z,1019.03
2019-02-18T08:06:51.185Z,1019.03
2019-02-18T08:07:51.159Z,1019.01
2019-02-18T08:08:51.131Z,1019.01
2019-02-18T08:09:51.103Z,1018.98
2019-02-18T08:10:51.073Z,1018.99
2019-02-18T08:11:51.043Z,1019.00
2019-02-18T08:12:51.017Z,1018.98
2019-02-18T08:13:51.004Z,1018.99
2019-02-18T08:14:50.959Z,1019.02
2019-02-18T08:15:50.931Z,1019.04
2019-02-18T08:16:50.904Z,1019.05
2019-02-18T08:17:50.876Z,1019.06
2019-02-18T08:18:50.849Z,1019.00
2019-02-18T08:19:50.823Z,1019.03
2019-02-18T08:20:50.793Z,1019.03
2019-02-18T08:21:50.770Z,1019.03
2019-02-18T08:22:50.741Z,1019.02
2019-02-18T08:23:59.674Z,1019.05
2019-02-18T08:24:50.685Z,1019.04
2019-02-18T08:25:50.657Z,1018.98
2019-02-18T08:26:50.632Z,1018.97
2019-02-18T08:27:50.607Z,1018.94
2019-02-18T08:28:50.578Z,1018.92
2019-02-18T08:29:50.553Z,1018.95
2019-02-18T08:30:50.525Z,1018.92
2019-02-18T08:31:50.499Z,1018.94
2019-02-18T08:32:50.477Z,1018.87
2019-02-18T08:33:50.447Z,1018.91
2019-02-18T08:34:50.422Z,1018.87
2019-02-18T08:35:50.396Z,1018.89
2019-02-18T08:36:50.370Z,1018.90
2019-02-18T08:37:50.345Z,1018.92
2019-02-18T08:38:50.319Z,1018.94
2019-02-18T08:39:50.293Z,1018.90
2019-02-18T08:40:50.268Z,1018.90
2019-02-18T08:41:50.246Z,1018.91
2019-02-18T08:42:50.217Z,1018.88
2019-02-18T08:43:50.194Z,1018.90
2019-02-18T08:44:50.167Z,1018.87
2019-02-18T08:45:50.140Z,1018.92
2019-02-18T08:46:50.118Z,1018.84
2019-02-18T08:47:50.091Z,1018.82
2019-02-18T08:48:50.065Z,1018.86
2019-02-18T08:49:50.040Z,1018.81
2019-02-18T08:50:50.015Z,1018.81
2019-02-18T08:51:49.992Z,1018.81
2019-02-18T08:52:49.965Z,1018.80
2019-02-18T08:53:49.947Z,1018.82
2019-02-18T08:54:56.256Z,1018.80
2019-02-18T08:55:49.895Z,1018.80
2019-02-18T08:56:49.868Z,1018.81
2019-02-18T08:57:49.844Z,1018.87
2019-02-18T08:58:49.825Z,1018.79
2019-02-18T08:59:49.795Z,1018.85
2019-02-18T09:00:49.769Z,1018.84
2019-02-18T09:01:49.745Z,1018.83
2019-02-18T09:02:49.723Z,1018.83
2019-02-18T09:03:49.697Z,1018.82
2019-02-18T09:04:49.673Z,1018.82
2019-02-18T09:05:49.649Z,1018.85
2019-02-18T09:06:49.626Z,1018.84
2019-02-18T09:07:49.602Z,1018.85
2019-02-18T09:08:49.577Z,1018.84
2019-02-18T09:09:51.289Z,1018.80
2019-02-18T09:10:49.528Z,1018.80
2019-02-18T09:11:49.504Z,1018.78
2019-02-18T09:12:49.480Z,1018.77
2019-02-18T09:13:49.456Z,1018.77
2019-02-18T09:14:49.433Z,1018.81
2019-02-18T09:15:59.457Z,1018.79
2019-02-18T09:16:49.385Z,1018.77
2019-02-18T09:17:49.363Z,1018.82
2019-02-18T09:18:49.340Z,1018.77
2019-02-18T09:19:49.316Z,1018.80
2019-02-18T09:20:49.294Z,1018.81
2019-02-18T09:21:49.272Z,1018.80
2019-02-18T09:22:49.248Z,1018.78
2019-02-18T09:23:49.224Z,1018.77
2019-02-18T09:24:49.201Z,1018.78
2019-02-18T09:25:49.181Z,1018.80
2019-02-18T09:26:49.157Z,1018.81
2019-02-18T09:27:49.132Z,1018.81
2019-02-18T09:28:49.110Z,1018.78
2019-02-18T09:29:49.093Z,1018.78
2019-02-18T09:30:49.066Z,1018.77
2019-02-18T09:31:49.042Z,1018.78
2019-02-18T09:32:49.024Z,1018.75
2019-02-18T09:33:49.001Z,1018.76
2019-02-18T09:34:53.279Z,1018.69
2019-02-18T09:35:48.955Z,1018.74
2019-02-18T09:36:48.931Z,1018.73
2019-02-18T09:37:48.909Z,1018.70
2019-02-18T09:38:48.887Z,1018.72
2019-02-18T09:39:48.864Z,1018.70
2019-02-18T09:40:51.413Z,1018.72
2019-02-18T09:41:48.821Z,1018.72
2019-02-18T09:42:48.800Z,1018.67
2019-02-18T09:43:48.777Z,1018.65
2019-02-18T09:44:48.758Z,1018.67
2019-02-18T09:45:48.735Z,1018.69
2019-02-18T09:46:48.717Z,1018.67
2019-02-18T09:47:48.692Z,1018.69
2019-02-18T09:48:48.671Z,1018.68
2019-02-18T09:49:48.652Z,1018.65
2019-02-18T09:50:48.628Z,1018.72
2019-02-18T09:51:48.607Z,1018.68
2019-02-18T09:52:48.585Z,1018.67
2019-02-18T09:53:48.564Z,1018.65
2019-02-18T09:54:48.545Z,1018.71
2019-02-18T09:55:48.527Z,1018.66
2019-02-18T09:56:48.504Z,1018.63
2019-02-18T09:57:48.481Z,1018.61
2019-02-18T09:58:50.142Z,1018.58
2019-02-18T09:59:48.441Z,1018.62
2019-02-18T10:00:48.420Z,1018.61
2019-02-18T10:01:48.400Z,1018.59
2019-02-18T10:02:48.383Z,1018.58
2019-02-18T10:03:48.360Z,1018.57
2019-02-18T10:04:48.338Z,1018.59
2019-02-18T10:05:48.319Z,1018.57
2019-02-18T10:06:48.299Z,1018.56
2019-02-18T10:07:48.279Z,1018.56
2019-02-18T10:08:48.258Z,1018.54
2019-02-18T10:09:48.238Z,1018.56
2019-02-18T10:10:55.459Z,1018.52
2019-02-18T10:11:48.199Z,1018.53
2019-02-18T10:12:48.182Z,1018.57
2019-02-18T10:13:48.158Z,1018.53
2019-02-18T10:14:48.139Z,1018.46
2019-02-18T10:15:48.117Z,1018.50
2019-02-18T10:16:48.098Z,1018.52
2019-02-18T10:17:48.080Z,1018.48
2019-02-18T10:18:48.060Z,1018.49
2019-02-18T10:19:48.040Z,1018.50
2019-02-18T10:20:48.019Z,1018.50
2019-02-18T10:21:48.001Z,1018.49
2019-02-18T10:22:47.983Z,1018.46
2019-02-18T10:23:47.961Z,1018.47
2019-02-18T10:24:51.004Z,1018.48
2019-02-18T10:25:47.922Z,1018.42
2019-02-18T10:26:47.902Z,1018.44
2019-02-18T10:27:47.881Z,1018.46
2019-02-18T10:28:47.862Z,1018.41
2019-02-18T10:29:47.844Z,1018.44
2019-02-18T10:30:47.823Z,1018.39
2019-02-18T10:31:47.803Z,1018.40
2019-02-18T10:32:47.784Z,1018.38
2019-02-18T10:33:47.764Z,1018.42
2019-02-18T10:34:47.747Z,1018.42
2019-02-18T10:35:47.725Z,1018.41
2019-02-18T10:36:47.705Z,1018.38
2019-02-18T10:37:54.801Z,1018.41
2019-02-18T10:38:47.670Z,1018.37
2019-02-18T10:39:47.646Z,1018.37
2019-02-18T10:40:47.627Z,1018.38
2019-02-18T10:41:47.610Z,1018.36
2019-02-18T10:42:47.589Z,1018.39
2019-02-18T10:43:47.569Z,1018.34
2019-02-18T10:44:47.549Z,1018.36
2019-02-18T10:45:47.532Z,1018.36
2019-02-18T10:46:47.514Z,1018.37
2019-02-18T10:47:47.490Z,1018.36
2019-02-18T10:48:47.472Z,1018.33
2019-02-18T10:49:47.450Z,1018.33
2019-02-18T10:50:47.434Z,1018.31
2019-02-18T10:51:47.411Z,1018.29
2019-02-18T10:52:47.391Z,1018.24
2019-02-18T10:53:47.375Z,1018.26
2019-02-18T10:54:49.527Z,1018.26
2019-02-18T10:55:47.335Z,1018.26
2019-02-18T10:56:47.316Z,1018.18
2019-02-18T10:57:47.292Z,1018.21
2019-02-18T10:58:47.272Z,1018.18
2019-02-18T10:59:47.253Z,1018.16
2019-02-18T11:00:47.232Z,1018.11
2019-02-18T11:01:47.212Z,1018.11
2019-02-18T11:02:47.193Z,1018.13
2019-02-18T11:03:47.173Z,1018.09
2019-02-18T11:04:47.152Z,1018.09
2019-02-18T11:05:47.132Z,1018.10
2019-02-18T11:06:47.112Z,1018.10
2019-02-18T11:07:47.091Z,1018.11
2019-02-18T11:08:47.070Z,1018.09
2019-02-18T11:09:47.052Z,1018.08
2019-02-18T11:10:47.034Z,1018.05
2019-02-18T11:11:47.016Z,1018.08
2019-02-18T11:12:47.758Z,1018.07
2019-02-18T11:13:46.974Z,1018.01
2019-02-18T11:14:46.953Z,1018.02
2019-02-18T11:15:46.932Z,1018.01
2019-02-18T11:16:46.912Z,1018.01
2019-02-18T11:17:46.893Z,1017.99
2019-02-18T11:18:46.875Z,1017.95
2019-02-18T11:19:46.852Z,1018.00
2019-02-18T11:20:46.833Z,1018.00
2019-02-18T11:21:46.814Z,1017.96
2019-02-18T11:22:46.797Z,1017.96
2019-02-18T11:23:46.772Z,1017.96
2019-02-18T11:24:46.756Z,1017.92
2019-02-18T11:25:46.734Z,1017.92
2019-02-18T11:26:46.714Z,1017.93
2019-02-18T11:27:46.696Z,1017.93
2019-02-18T11:28:46.675Z,1017.91
2019-02-18T11:29:46.655Z,1017.92
2019-02-18T11:30:46.642Z,1017.90
2019-02-18T11:31:46.615Z,1017.85
2019-02-18T11:32:46.597Z,1017.85
2019-02-18T11:33:46.576Z,1017.87
2019-02-18T11:34:46.557Z,1017.82
2019-02-18T11:35:46.539Z,1017.85
2019-02-18T11:36:46.518Z,1017.83
2019-02-18T11:37:46.500Z,1017.80
2019-02-18T11:38:46.481Z,1017.78
2019-02-18T11:39:46.460Z,1017.79
2019-02-18T11:40:46.441Z,1017.75
2019-02-18T11:41:46.428Z,1017.70
2019-02-18T11:42:46.402Z,1017.71
2019-02-18T11:43:46.385Z,1017.67
2019-02-18T11:44:46.363Z,1017.67
2019-02-18T11:45:46.343Z,1017.67
2019-02-18T11:46:46.324Z,1017.65
2019-02-18T11:47:46.303Z,1017.63
2019-02-18T11:48:46.284Z,1017.60
2019-02-18T11:49:46.266Z,1017.64
2019-02-18T11:50:46.246Z,1017.66
2019-02-18T11:51:46.227Z,1017.59
2019-02-18T11:52:46.211Z,1017.58
2019-02-18T11:53:46.187Z,1017.59
2019-02-18T11:54:46.180Z,1017.59
2019-02-18T11:55:46.145Z,1017.59
2019-02-18T11:56:46.131Z,1017.58
2019-02-18T11:57:46.106Z,1017.53
2019-02-18T11:58:46.085Z,1017.51
2019-02-18T11:59:46.065Z,1017.46
2019-02-18T12:00:46.046Z,1017.48
2019-02-18T12:01:46.025Z,1017.45
2019-02-18T12:02:46.006Z,1017.41
2019-02-18T12:03:45.986Z,1017.43
2019-02-18T12:04:45.966Z,1017.42